createdAt,value
2017-08-01T21:10:58.395Z,5.03
2017-08-01T21:13:25.953Z,4.63
2017-08-01T21:18:04.337Z,5.07
2017-08-01T21:20:31.942Z,4.63
2017-08-01T21:22:59.507Z,4.60
2017-08-01T21:25:27.053Z,4.30
2017-08-01T21:27:54.616Z,4.60
2017-08-01T21:30:22.239Z,5.13
2017-08-01T21:32:49.766Z,4.70
2017-08-01T21:35:17.328Z,4.30
2017-08-01T21:37:44.870Z,5.93
2017-08-01T21:40:12.430Z,5.80
2017-08-01T21:42:40.022Z,5.13
2017-08-01T21:45:07.571Z,4.40
2017-08-01T21:47:35.098Z,4.30
2017-08-01T21:50:02.720Z,5.20
2017-08-01T21:52:30.257Z,4.80
2017-08-01T21:54:57.839Z,4.53
2017-08-01T21:57:25.358Z,4.47
2017-08-01T21:59:52.918Z,5.10
2017-08-01T22:02:20.433Z,4.30
2017-08-01T22:04:47.991Z,4.80
2017-08-01T22:07:15.526Z,5.07
2017-08-01T22:09:43.098Z,4.90
2017-08-01T22:12:10.632Z,5.03
2017-08-01T22:14:38.216Z,5.53
2017-08-01T22:17:05.740Z,4.47
2017-08-01T22:19:33.261Z,4.23
2017-08-01T22:22:00.813Z,4.77
2017-08-01T22:24:28.334Z,5.23
2017-08-01T22:26:55.901Z,4.53
2017-08-01T22:29:23.537Z,4.97
2017-08-01T22:31:51.094Z,5.20
2017-08-01T22:34:18.620Z,5.20
2017-08-01T22:36:46.178Z,5.60
2017-08-01T22:39:13.774Z,5.00
2017-08-01T22:41:41.329Z,5.00
2017-08-01T22:44:08.852Z,4.57
2017-08-01T22:46:36.415Z,5.07
2017-08-01T22:49:03.933Z,5.10
2017-08-01T22:51:31.482Z,6.73
2017-08-01T22:53:59.017Z,7.30
2017-08-01T22:56:26.572Z,8.33
2017-08-01T22:58:54.099Z,10.40
2017-08-01T23:01:21.657Z,11.67
2017-08-01T23:03:49.182Z,11.80
2017-08-01T23:06:16.750Z,10.90
2017-08-01T23:08:44.282Z,10.73
2017-08-01T23:11:11.814Z,9.30
2017-08-01T23:13:39.378Z,9.03
2017-08-01T23:16:06.903Z,9.20
2017-08-01T23:18:34.458Z,9.87
2017-08-01T23:21:01.978Z,7.90
2017-08-01T23:23:29.534Z,7.53
2017-08-01T23:25:57.053Z,6.80
2017-08-01T23:28:24.614Z,6.83
2017-08-01T23:30:52.154Z,7.70
2017-08-01T23:33:19.714Z,7.03
2017-08-01T23:35:47.230Z,6.10
2017-08-01T23:38:14.785Z,6.80
2017-08-01T23:40:42.329Z,6.67
2017-08-01T23:43:09.885Z,6.37
2017-08-01T23:45:37.418Z,5.80
2017-08-01T23:48:04.975Z,6.67
2017-08-01T23:50:32.501Z,6.13
2017-08-01T23:53:00.052Z,6.13
2017-08-01T23:55:27.572Z,5.60
2017-08-01T23:57:55.132Z,6.83
